Time;durP1;ratioP1;P1;durP2;ratioP2;P2;SDS_P1;SDS_P2;PMS_P1;PMS_P2;Temp;Humidity;BMP_temperature;BMP_pressure;BME280_temperature;BME280_humidity;BME280_pressure;Samples;Min_cycle;Max_cycle;Signal;HPM_P1;HPM_P2
2021/11/04 00:01:18;;;;;;;19.30;12.00;;;;;;;7.52;75.48;99355.69;113253;1195;123847;-63
2021/11/04 00:04:05;;;;;;;17.80;12.70;;;;;;;7.50;75.40;99344.18;113437;1195;96161;-62
2021/11/04 00:06:55;;;;;;;18.20;12.90;;;;;;;7.49;75.62;99342.50;113219;1195;137847;-62
2021/11/04 00:09:42;;;;;;;19.80;12.20;;;;;;;7.46;75.79;99350.39;113390;1195;108635;-63
2021/11/04 00:12:29;;;;;;;18.10;12.40;;;;;;;7.43;75.81;99348.05;113284;1196;137687;-63
2021/11/04 00:15:16;;;;;;;16.10;12.20;;;;;;;7.44;75.81;99360.16;113395;1195;96175;-62
2021/11/04 00:18:03;;;;;;;17.90;11.80;;;;;;;7.44;75.89;99360.51;113247;1195;138071;-62
2021/11/04 00:20:50;;;;;;;16.50;11.70;;;;;;;7.43;75.91;99369.00;113384;1195;110808;-62
2021/11/04 00:23:37;;;;;;;19.40;13.30;;;;;;;7.44;75.96;99371.02;113755;1195;137999;-63
2021/11/04 00:26:25;;;;;;;15.80;11.40;;;;;;;7.44;75.87;99374.67;114686;1194;108486;-63
2021/11/04 00:29:11;;;;;;;16.60;12.00;;;;;;;7.46;75.84;99377.71;114752;1194;94114;-62
2021/11/04 00:32:00;;;;;;;16.80;12.20;;;;;;;7.49;75.82;99368.45;114696;1194;137582;-63
2021/11/04 00:34:47;;;;;;;17.60;12.10;;;;;;;7.51;75.69;99362.15;114301;1193;109833;-63
2021/11/04 00:37:34;;;;;;;16.90;11.30;;;;;;;7.52;75.61;99359.67;114700;1195;138277;-63
2021/11/04 00:40:22;;;;;;;17.60;12.90;;;;;;;7.55;75.55;99350.95;114762;1194;105611;-63
2021/11/04 00:43:09;;;;;;;15.60;11.60;;;;;;;7.57;75.44;99353.98;114640;1194;137634;-63
2021/11/04 00:45:56;;;;;;;16.30;11.10;;;;;;;7.59;75.36;99346.14;114803;1194;94398;-62
2021/11/04 00:48:42;;;;;;;16.80;12.90;;;;;;;7.62;75.51;99343.61;114656;1193;139819;-62
2021/11/04 00:51:29;;;;;;;20.20;12.70;;;;;;;7.64;75.71;99326.40;113390;1195;108131;-61
2021/11/04 00:54:16;;;;;;;16.00;11.40;;;;;;;7.63;75.79;99331.80;114631;1194;137911;-61
2021/11/04 00:57:03;;;;;;;16.10;12.00;;;;;;;7.63;75.80;99326.63;114782;1194;94638;-62
2021/11/04 00:59:50;;;;;;;17.50;12.10;;;;;;;7.62;75.71;99342.73;114669;1194;138422;-61
2021/11/04 01:02:37;;;;;;;15.90;11.90;;;;;;;7.62;75.80;99358.84;114656;1194;110843;-63
2021/11/04 01:05:24;;;;;;;15.90;11.30;;;;;;;7.63;75.70;99348.08;114745;1195;107558;-61
2021/11/04 01:08:11;;;;;;;17.90;12.00;;;;;;;7.64;75.83;99342.33;114625;1194;137213;-62
2021/11/04 01:10:58;;;;;;;15.60;11.10;;;;;;;7.65;75.61;99348.86;114757;1195;94301;-62
2021/11/04 01:13:45;;;;;;;16.40;11.40;;;;;;;7.66;75.49;99341.89;114684;1193;138056;-62
2021/11/04 01:16:32;;;;;;;14.90;11.60;;;;;;;7.68;75.53;99356.54;114765;1194;110898;-62
2021/11/04 01:19:19;;;;;;;16.30;12.10;;;;;;;7.68;75.35;99343.05;114662;1194;137563;-62
2021/11/04 01:22:06;;;;;;;15.70;11.40;;;;;;;7.69;75.48;99343.19;114742;1195;107517;-62
2021/11/04 01:24:52;;;;;;;16.90;10.90;;;;;;;7.70;75.33;99346.10;114606;1195;138787;-62
2021/11/04 01:27:39;;;;;;;15.00;11.50;;;;;;;7.69;75.35;99351.66;114835;1195;94395;-62
2021/11/04 01:30:26;;;;;;;14.50;10.60;;;;;;;7.69;75.37;99360.13;114632;1193;138301;-61
2021/11/04 01:33:13;;;;;;;14.30;10.60;;;;;;;7.70;75.36;99378.28;114780;1193;109374;-62
2021/11/04 01:36:00;;;;;;;14.80;11.30;;;;;;;7.70;75.22;99381.89;114673;1193;139011;-62
2021/11/04 01:38:48;;;;;;;16.90;11.10;;;;;;;7.70;75.26;99373.09;114014;1195;96159;-62
2021/11/04 01:41:34;;;;;;;15.30;10.70;;;;;;;7.70;75.03;99380.71;113422;1196;96145;-63
2021/11/04 01:44:21;;;;;;;13.10;10.70;;;;;;;7.69;75.18;99377.96;113228;1195;138446;-62
2021/11/04 01:47:08;;;;;;;15.50;11.20;;;;;;;7.70;75.25;99384.84;113349;1195;108594;-63
2021/11/04 01:49:55;;;;;;;14.60;10.80;;;;;;;7.68;75.17;99389.58;114660;1194;137696;-62
2021/11/04 01:52:43;;;;;;;16.60;11.30;;;;;;;7.67;75.13;99393.77;113760;1194;96323;-62
2021/11/04 01:55:31;;;;;;;15.70;11.20;;;;;;;7.66;75.13;99390.87;113377;1193;137272;-63
2021/11/04 01:58:18;;;;;;;;;;;;;;;7.64;75.17;99386.61;114788;1193;111005;-62
2021/11/04 02:01:05;;;;;;;15.70;10.40;;;;;;;7.64;75.13;99385.91;114664;1193;125196;-62
2021/11/04 02:04:22;;;;;;;16.20;11.00;;;;;;;7.67;75.12;99385.80;114734;1195;108437;-62
2021/11/04 02:07:32;;;;;;;16.50;11.00;;;;;;;7.70;75.03;99386.56;114666;1195;137330;-62
2021/11/04 02:10:43;;;;;;;14.60;10.20;;;;;;;7.70;74.97;99386.57;114810;1194;94361;-62
2021/11/04 02:13:37;;;;;;;13.40;9.70;;;;;;;7.70;74.78;99385.35;113685;1193;137671;-62
2021/11/04 02:16:26;;;;;;;15.00;11.30;;;;;;;7.71;74.74;99378.93;113408;1195;108735;-62
2021/11/04 02:19:24;;;;;;;14.80;10.20;;;;;;;7.71;74.74;99384.47;114629;1195;137726;-62
2021/11/04 02:22:20;;;;;;;13.50;9.90;;;;;;;7.70;74.66;99385.02;114768;1195;95147;-62
2021/11/04 02:25:15;;;;;;;13.30;9.80;;;;;;;7.72;74.65;99386.00;114173;1195;137168;-63
2021/11/04 02:28:08;;;;;;;14.00;8.90;;;;;;;7.72;74.43;99381.33;113413;1195;110888;-63
2021/11/04 02:30:57;;;;;;;11.60;8.70;;;;;;;7.74;74.52;99375.23;113259;1195;137702;-62
2021/11/04 02:33:44;;;;;;;12.10;9.50;;;;;;;7.75;74.39;99364.78;113336;1196;109846;-62
2021/11/04 02:36:32;;;;;;;13.80;9.80;;;;;;;7.78;74.30;99357.39;114549;1193;137565;-62
2021/11/04 02:39:19;;;;;;;11.50;9.60;;;;;;;7.80;74.11;99346.97;114800;1195;94422;-62
2021/11/04 02:42:07;;;;;;;;;;;;;;;7.79;74.22;99345.96;114642;1195;138277;-62
2021/11/04 02:44:54;;;;;;;13.90;9.90;;;;;;;7.80;74.04;99338.98;114812;1194;108550;-62
2021/11/04 02:47:42;;;;;;;12.00;9.20;;;;;;;7.83;74.11;99327.44;114747;1194;107340;-62
2021/11/04 02:50:29;;;;;;;12.50;9.00;;;;;;;7.86;73.95;99326.61;114592;1195;137059;-62
2021/11/04 02:53:20;;;;;;;12.20;9.00;;;;;;;7.87;73.72;99325.56;113607;1195;96233;-63
2021/11/04 02:56:07;;;;;;;12.40;9.60;;;;;;;7.87;73.66;99328.17;113550;1196;137595;-60
2021/11/04 02:58:58;;;;;;;12.10;9.40;;;;;;;7.85;73.49;99327.70;113882;1195;107098;-61
2021/11/04 03:01:47;;;;;;;13.40;9.30;;;;;;;7.84;73.42;99317.90;114633;1194;138726;-62
2021/11/04 03:04:34;;;;;;;13.60;9.00;;;;;;;7.83;73.29;99311.88;113674;1196;96172;-62
2021/11/04 03:07:21;;;;;;;12.30;9.30;;;;;;;7.83;73.34;99308.95;113324;1195;137729;-62
2021/11/04 03:10:08;;;;;;;;;;;;;;;7.84;73.31;99302.84;113827;1195;111099;-62
2021/11/04 03:12:55;;;;;;;12.40;9.40;;;;;;;7.84;73.39;99305.09;114692;1194;123408;-63
2021/11/04 03:15:46;;;;;;;12.00;9.00;;;;;;;7.83;73.36;99308.23;114737;1194;108756;-63
2021/11/04 03:18:33;;;;;;;12.20;8.70;;;;;;;7.83;73.30;99313.62;114607;1195;138703;-63
2021/11/04 03:21:19;;;;;;;11.90;8.20;;;;;;;7.83;73.31;99309.45;114786;1194;94450;-63
2021/11/04 03:24:07;;;;;;;12.30;8.50;;;;;;;7.82;73.19;99302.04;114771;1194;109356;-63
2021/11/04 03:27:05;;;;;;;11.50;8.50;;;;;;;7.79;73.06;99294.55;114538;1194;109013;-62
2021/11/04 03:29:53;;;;;;;11.20;8.40;;;;;;;7.78;73.08;99285.09;113667;1194;109627;-63
2021/11/04 03:32:41;;;;;;;;;;;;;;;7.77;73.10;99288.92;114554;1194;137352;-63
2021/11/04 03:35:30;;;;;;;12.10;7.80;;;;;;;7.75;72.84;99287.62;114728;1193;94338;-63
2021/11/04 03:38:17;;;;;;;10.80;7.80;;;;;;;7.72;72.87;99278.73;114680;1195;138659;-63
2021/11/04 03:41:04;;;;;;;11.50;8.10;;;;;;;7.72;72.82;99274.57;114114;1195;108121;-63
2021/11/04 03:43:51;;;;;;;10.70;8.20;;;;;;;7.72;72.79;99271.45;113337;1195;138852;-63
2021/11/04 03:46:42;;;;;;;11.40;7.80;;;;;;;7.72;72.55;99267.12;114734;1193;94284;-61
2021/11/04 03:49:31;;;;;;;11.30;7.30;;;;;;;7.71;72.53;99267.50;114695;1194;137713;-63
2021/11/04 03:52:19;;;;;;;10.60;7.20;;;;;;;7.71;72.50;99260.21;114307;1195;109972;-63
2021/11/04 03:55:06;;;;;;;11.00;7.70;;;;;;;7.74;72.42;99251.15;114003;1181;138008;-61
2021/11/04 03:57:53;;;;;;;11.10;7.80;;;;;;;7.75;72.34;99244.35;114769;1195;108544;-62
2021/11/04 04:00:40;;;;;;;9.90;7.00;;;;;;;7.74;72.23;99246.81;114530;1193;137741;-62
2021/11/04 04:03:27;;;;;;;9.10;6.90;;;;;;;7.74;72.14;99244.91;113366;1195;96247;-62
2021/11/04 04:06:14;;;;;;;11.00;7.70;;;;;;;7.75;72.03;99237.25;114755;1195;109936;-63
2021/11/04 04:09:04;;;;;;;10.80;7.70;;;;;;;7.75;71.99;99238.45;114650;1194;137190;-63
2021/11/04 04:11:51;;;;;;;10.80;7.20;;;;;;;7.74;71.87;99231.95;114746;1194;106533;-63
2021/11/04 04:14:38;;;;;;;9.70;6.70;;;;;;;7.75;71.96;99227.58;114149;1195;137990;-62
2021/11/04 04:17:25;;;;;;;9.30;6.80;;;;;;;7.77;71.78;99227.98;114747;1194;94401;-63
2021/11/04 04:20:12;;;;;;;8.80;7.10;;;;;;;7.78;71.38;99235.94;114690;1194;136935;-62
2021/11/04 04:22:59;;;;;;;10.30;6.80;;;;;;;7.76;71.45;99236.35;114755;1194;108627;-63
2021/11/04 04:25:46;;;;;;;9.50;6.10;;;;;;;7.76;71.28;99241.20;114654;1195;138437;-63
2021/11/04 04:28:34;;;;;;;8.10;6.80;;;;;;;7.77;71.00;99241.85;114748;1195;94488;-63
2021/11/04 04:31:21;;;;;;;9.00;7.20;;;;;;;7.77;70.97;99247.05;114615;1193;137883;-63
2021/11/04 04:34:08;;;;;;;9.60;6.90;;;;;;;7.77;70.86;99243.23;114746;1195;111091;-63
2021/11/04 04:36:55;;;;;;;8.20;6.10;;;;;;;7.76;70.53;99242.58;114659;1194;138640;-63
2021/11/04 04:39:41;;;;;;;11.70;6.80;;;;;;;7.78;70.67;99236.48;113562;1195;108034;-62
2021/11/04 04:42:28;;;;;;;9.10;6.70;;;;;;;7.78;70.56;99232.31;113395;1196;96186;-62
2021/11/04 04:45:16;;;;;;;10.50;6.70;;;;;;;7.78;70.46;99234.02;113471;1195;136699;-62
2021/11/04 04:48:03;;;;;;;8.60;6.10;;;;;;;7.76;70.43;99224.24;114764;1195;110888;-62
2021/11/04 04:50:50;;;;;;;8.60;6.50;;;;;;;7.75;70.30;99212.86;114629;1194;138417;-62
2021/11/04 04:53:37;;;;;;;9.30;7.20;;;;;;;7.77;70.23;99205.88;114025;1194;107106;-63
2021/11/04 04:56:23;;;;;;;11.40;7.20;;;;;;;7.78;70.31;99211.38;114525;1194;137217;-63
2021/11/04 04:59:10;;;;;;;10.80;6.60;;;;;;;7.77;70.06;99212.27;113422;1195;96268;-63
2021/11/04 05:01:57;;;;;;;10.20;7.50;;;;;;;7.78;70.01;99206.89;114689;1194;138724;-63
2021/11/04 05:04:43;;;;;;;10.90;7.90;;;;;;;7.79;69.74;99210.96;114795;1193;107902;-63
2021/11/04 05:07:30;;;;;;;9.90;7.00;;;;;;;7.80;69.79;99212.31;114595;1195;137866;-62
2021/11/04 05:10:17;;;;;;;11.40;7.10;;;;;;;7.80;69.70;99205.91;114722;1195;94811;-62
2021/11/04 05:13:03;;;;;;;11.70;7.10;;;;;;;7.80;69.62;99204.01;114670;1194;139524;-63
2021/11/04 05:15:50;;;;;;;9.30;7.30;;;;;;;7.82;69.43;99190.77;114782;1181;112021;-63
2021/11/04 05:18:37;;;;;;;10.70;6.90;;;;;;;7.83;69.37;99183.63;113741;1195;108656;-63
2021/11/04 05:21:24;;;;;;;11.50;7.40;;;;;;;7.83;69.27;99172.73;114389;1195;137032;-63
2021/11/04 05:24:11;;;;;;;12.80;6.90;;;;;;;7.83;69.21;99161.66;114734;1194;94508;-63
2021/11/04 05:26:58;;;;;;;8.90;6.90;;;;;;;7.84;69.14;99145.70;114657;1195;137964;-63
2021/11/04 05:29:44;;;;;;;11.90;8.00;;;;;;;7.86;69.03;99140.10;114744;1193;109870;-63
2021/11/04 05:32:31;;;;;;;11.40;6.70;;;;;;;7.85;68.97;99132.69;113336;1194;137801;-62
2021/11/04 05:35:18;;;;;;;8.50;6.40;;;;;;;7.83;68.90;99130.85;114602;1195;108525;-62
2021/11/04 05:38:05;;;;;;;9.30;6.90;;;;;;;7.83;69.06;99122.90;114629;1195;137670;-63
2021/11/04 05:40:52;;;;;;;10.20;6.90;;;;;;;7.84;68.94;99131.49;114774;1194;94465;-63
2021/11/04 05:43:39;;;;;;;15.10;7.60;;;;;;;7.86;68.72;99129.89;114668;1195;137405;-63
2021/11/04 05:46:26;;;;;;;9.70;6.60;;;;;;;7.88;68.96;99122.88;114789;1194;107624;-64
2021/11/04 05:49:13;;;;;;;8.80;6.60;;;;;;;7.89;68.64;99121.96;114427;1193;137557;-63
2021/11/04 05:51:59;;;;;;;8.60;6.50;;;;;;;7.91;68.60;99117.45;113920;1195;96596;-62
2021/11/04 05:54:47;;;;;;;10.60;7.50;;;;;;;7.92;68.57;99113.42;114765;1194;94675;-62
2021/11/04 05:57:34;;;;;;;12.20;7.50;;;;;;;7.92;68.45;99122.09;114524;1193;137637;-61
2021/11/04 06:00:20;;;;;;;14.10;6.70;;;;;;;7.93;68.49;99126.01;114771;1194;108629;-61
2021/11/04 06:03:07;;;;;;;10.70;6.10;;;;;;;7.95;68.46;99130.06;114598;1195;137505;-62
2021/11/04 06:05:54;;;;;;;11.80;7.00;;;;;;;8.00;68.14;99127.43;114769;1194;94413;-62
2021/11/04 06:08:41;;;;;;;10.40;7.40;;;;;;;8.06;68.24;99116.65;114643;1194;137098;-62
2021/11/04 06:11:27;;;;;;;11.30;7.70;;;;;;;8.10;68.06;99113.37;114793;1194;110926;-62
2021/11/04 06:14:14;;;;;;;8.20;6.50;;;;;;;8.12;67.95;99127.30;114581;1195;137540;-62
2021/11/04 06:17:01;;;;;;;15.60;7.30;;;;;;;8.15;67.82;99120.10;114051;1194;108823;-64
2021/11/04 06:19:48;;;;;;;;;;;;;;;8.18;67.79;99112.70;114648;1194;137632;-62
2021/11/04 06:22:35;;;;;;;11.50;8.20;;;;;;;8.20;67.79;99112.77;114765;1194;94337;-61
2021/11/04 06:25:22;;;;;;;12.20;7.60;;;;;;;8.19;67.72;99100.16;114670;1194;138067;-62
2021/11/04 06:28:09;;;;;;;16.70;6.90;;;;;;;8.19;67.36;99104.49;114751;1194;108656;-62
2021/11/04 06:30:56;;;;;;;12.60;7.10;;;;;;;8.22;67.43;99114.07;114202;1195;108573;-62
2021/11/04 06:33:42;;;;;;;11.60;7.70;;;;;;;8.26;67.58;99115.83;114585;1194;137107;-62
2021/11/04 06:36:30;;;;;;;11.90;8.20;;;;;;;8.30;67.57;99108.59;114638;1195;94341;-62
2021/11/04 06:39:17;;;;;;;12.00;7.50;;;;;;;8.33;67.40;99110.54;114676;1194;137609;-62
2021/11/04 06:42:05;;;;;;;11.20;7.00;;;;;;;8.34;67.30;99107.72;114682;1194;108594;-61
2021/11/04 06:44:52;;;;;;;11.50;8.40;;;;;;;8.37;67.16;99107.08;114525;1194;137595;-62
2021/11/04 06:47:46;;;;;;;14.60;8.20;;;;;;;8.42;67.08;99101.83;113845;1194;96723;-62
2021/11/04 06:50:35;;;;;;;12.70;8.00;;;;;;;8.47;66.78;99103.23;114418;1194;137547;-63
2021/11/04 06:53:25;;;;;;;13.60;8.40;;;;;;;8.49;66.79;99105.90;114350;1194;107579;-62
2021/11/04 06:56:13;;;;;;;14.40;7.80;;;;;;;8.50;66.61;99108.66;114071;1194;141332;-62
2021/11/04 06:59:02;;;;;;;12.20;6.90;;;;;;;8.53;66.56;99116.66;114647;1194;108740;-63
2021/11/04 07:01:55;;;;;;;13.90;7.80;;;;;;;8.57;66.36;99113.73;114556;1194;139100;-63
2021/11/04 07:04:48;;;;;;;14.60;8.20;;;;;;;8.61;66.50;99107.84;114690;1195;94224;-64
2021/11/04 07:07:51;;;;;;;13.50;8.50;;;;;;;8.64;66.40;99099.06;114632;1193;137159;-64
2021/11/04 07:10:38;;;;;;;14.50;8.00;;;;;;;8.65;66.25;99094.33;114750;1194;108449;-64
2021/11/04 07:13:31;;;;;;;17.80;8.70;;;;;;;8.65;66.09;99097.11;114616;1194;137889;-64
2021/11/04 07:16:23;;;;;;;20.10;8.20;;;;;;;8.68;66.37;99094.89;114655;1194;94478;-64
2021/11/04 07:19:09;;;;;;;20.80;8.30;;;;;;;8.71;66.24;99090.41;114771;1195;94435;-65
2021/11/04 07:22:18;;;;;;;16.40;8.30;;;;;;;8.73;66.19;99085.81;114582;1194;137489;-64
2021/11/04 07:25:12;;;;;;;20.40;7.90;;;;;;;8.76;66.09;99077.36;114706;1194;108839;-64
2021/11/04 07:28:07;;;;;;;19.50;8.20;;;;;;;8.76;65.92;99068.53;113884;1195;137453;-65
2021/11/04 07:30:57;;;;;;;15.20;8.40;;;;;;;8.77;65.74;99059.12;113312;1186;96204;-63
2021/11/04 07:33:44;;;;;;;15.10;7.80;;;;;;;8.80;65.84;99047.73;114533;1195;137673;-63
2021/11/04 07:36:36;;;;;;;16.70;8.20;;;;;;;8.85;65.99;99039.05;113209;1195;110930;-64
2021/11/04 07:39:23;;;;;;;13.90;8.00;;;;;;;8.89;65.70;99032.95;113276;1194;137314;-64
2021/11/04 07:42:11;;;;;;;14.60;8.10;;;;;;;8.91;65.68;99030.27;113383;1194;108575;-64
2021/11/04 07:44:58;;;;;;;10.40;7.30;;;;;;;8.94;65.81;99028.21;113236;1195;137792;-64
2021/11/04 07:47:46;;;;;;;15.10;7.50;;;;;;;8.99;65.69;99024.00;113383;1194;96127;-63
2021/11/04 07:50:34;;;;;;;13.00;7.90;;;;;;;9.06;65.82;99020.73;113218;1195;138159;-64
2021/11/04 07:53:21;;;;;;;16.00;8.30;;;;;;;9.15;65.60;99016.87;114733;1194;107607;-64
2021/11/04 07:56:09;;;;;;;;;;;;;;;9.22;65.65;99001.79;114569;1194;137359;-64
2021/11/04 07:58:56;;;;;;;16.10;7.60;;;;;;;9.29;65.42;99002.16;114738;1193;94357;-64
2021/11/04 08:01:43;;;;;;;18.10;8.00;;;;;;;9.35;65.44;99003.80;114567;1194;138096;-64
2021/11/04 08:04:30;;;;;;;11.30;6.70;;;;;;;9.41;65.02;99003.67;114653;1194;110766;-64
2021/11/04 08:07:17;;;;;;;11.00;6.60;;;;;;;9.47;64.95;98996.08;114705;1194;107538;-64
2021/11/04 08:10:10;;;;;;;9.50;6.70;;;;;;;9.54;64.84;98995.25;114539;1194;137492;-64
2021/11/04 08:13:03;;;;;;;11.90;6.70;;;;;;;9.61;64.50;98996.66;114704;1194;95148;-64
2021/11/04 08:15:50;;;;;;;12.40;6.90;;;;;;;9.64;64.59;98990.08;114605;1194;137139;-64
2021/11/04 08:18:37;;;;;;;11.70;6.90;;;;;;;9.67;64.20;98987.33;114755;1194;111033;-64
2021/11/04 08:21:24;;;;;;;11.70;6.90;;;;;;;9.70;64.58;98977.66;114598;1194;138094;-64
2021/11/04 08:24:11;;;;;;;12.40;6.60;;;;;;;9.74;64.43;98977.64;114700;1194;108611;-64
2021/11/04 08:26:58;;;;;;;11.20;6.80;;;;;;;9.79;64.41;98966.10;113686;1194;137535;-64
2021/11/04 08:29:46;;;;;;;12.00;7.30;;;;;;;9.86;64.09;98957.77;114664;1194;94593;-64
2021/11/04 08:32:33;;;;;;;12.60;6.40;;;;;;;9.92;63.84;98954.33;113380;1194;137165;-64
2021/11/04 08:35:20;;;;;;;13.30;6.50;;;;;;;10.00;64.00;98946.09;113400;1194;108590;-65
2021/11/04 08:38:07;;;;;;;12.70;7.30;;;;;;;10.11;63.86;98946.79;113158;1195;138044;-64
2021/11/04 08:40:54;;;;;;;15.70;6.50;;;;;;;10.17;63.36;98937.59;113272;1194;96272;-64
2021/11/04 08:43:41;;;;;;;12.50;6.30;;;;;;;10.22;63.39;98937.71;113389;1194;96136;-64
2021/11/04 08:46:29;;;;;;;11.40;5.90;;;;;;;10.27;63.55;98937.46;113382;1195;111959;-64
2021/11/04 08:49:16;;;;;;;11.00;6.10;;;;;;;10.33;63.19;98930.02;113396;1195;108880;-65
2021/11/04 08:52:05;;;;;;;9.40;6.10;;;;;;;10.40;63.04;98946.01;114606;1194;139429;-64
2021/11/04 08:54:52;;;;;;;12.00;6.60;;;;;;;10.48;63.41;98933.09;114695;1194;94615;-63
2021/11/04 08:57:40;;;;;;;8.70;5.90;;;;;;;10.52;63.13;98935.45;114673;1194;137757;-63
2021/11/04 09:00:28;;;;;;;9.90;6.20;;;;;;;10.55;62.84;98938.56;114755;1194;110777;-62
2021/11/04 09:03:16;;;;;;;13.80;6.60;;;;;;;10.56;62.57;98925.31;114613;1194;137270;-63
2021/11/04 09:06:03;;;;;;;11.30;6.30;;;;;;;10.57;62.86;98927.20;114717;1194;106956;-63
2021/11/04 09:08:50;;;;;;;9.20;5.70;;;;;;;10.59;62.87;98936.30;114642;1194;137619;-63
2021/11/04 09:11:37;;;;;;;6.80;5.10;;;;;;;10.59;63.07;98925.89;114774;1194;94531;-63
2021/11/04 09:14:30;;;;;;;10.90;6.00;;;;;;;10.62;62.99;98935.97;114614;1194;137528;-64
2021/11/04 09:17:18;;;;;;;10.50;5.90;;;;;;;10.67;62.86;98924.63;113739;1184;108697;-64
2021/11/04 09:20:07;;;;;;;10.00;6.00;;;;;;;10.73;62.76;98919.75;113435;1194;108522;-64
2021/11/04 09:22:54;;;;;;;8.70;6.10;;;;;;;10.79;62.71;98919.06;114772;1194;94581;-64
2021/11/04 09:25:41;;;;;;;8.90;5.50;;;;;;;10.85;62.48;98909.67;114778;1194;94890;-64
2021/11/04 09:28:28;;;;;;;11.70;5.60;;;;;;;10.91;62.66;98900.67;114592;1195;138058;-65
2021/11/04 09:31:14;;;;;;;9.20;6.00;;;;;;;10.97;62.29;98895.67;114796;1193;108595;-65
2021/11/04 09:34:02;;;;;;;12.80;6.60;;;;;;;11.01;62.40;98880.52;114625;1194;137231;-65
2021/11/04 09:36:49;;;;;;;;;;;;;;;11.06;62.52;98872.88;114252;1194;96164;-64
2021/11/04 09:39:36;;;;;;;11.20;5.90;;;;;;;11.11;62.25;98866.67;114642;1193;124200;-64
2021/11/04 09:42:24;;;;;;;10.80;6.50;;;;;;;11.16;62.24;98856.66;114764;1194;109588;-64
2021/11/04 09:45:12;;;;;;;10.20;6.20;;;;;;;11.25;62.28;98852.33;114637;1194;138058;-64
2021/11/04 09:47:59;;;;;;;11.20;6.60;;;;;;;11.34;62.06;98845.01;114675;1194;108503;-65
2021/11/04 09:50:46;;;;;;;12.90;7.10;;;;;;;11.44;61.96;98832.06;114634;1193;137910;-65
2021/11/04 09:53:33;;;;;;;11.60;5.80;;;;;;;11.55;61.83;98827.59;114744;1194;94445;-65
2021/11/04 09:56:21;;;;;;;10.90;6.10;;;;;;;11.65;61.27;98824.27;114724;1194;110409;-64
2021/11/04 09:59:07;;;;;;;10.40;5.50;;;;;;;11.77;61.36;98818.10;113367;1195;137693;-64
2021/11/04 10:01:55;;;;;;;8.40;5.90;;;;;;;11.90;60.74;98805.72;113398;1194;108175;-65
2021/11/04 10:04:44;;;;;;;13.60;7.40;;;;;;;11.96;60.59;98822.77;113231;1195;137266;-65
2021/11/04 10:07:40;;;;;;;13.10;6.10;;;;;;;11.99;61.02;98796.27;114670;1194;94216;-65
2021/11/04 10:10:27;;;;;;;14.80;6.20;;;;;;;12.06;60.52;98791.29;113720;1193;138125;-65
2021/11/04 10:13:14;;;;;;;11.30;5.80;;;;;;;12.10;60.58;98782.52;113368;1194;108851;-65
2021/11/04 10:16:01;;;;;;;11.50;5.80;;;;;;;12.18;60.87;98773.83;114596;1193;137349;-65
2021/11/04 10:18:50;;;;;;;10.80;5.40;;;;;;;12.25;60.17;98778.32;113464;1195;96155;-64
2021/11/04 10:21:58;;;;;;;10.60;5.90;;;;;;;12.28;60.46;98779.32;114658;1194;137199;-64
2021/11/04 10:24:47;;;;;;;12.80;5.60;;;;;;;12.33;60.27;98787.33;114740;1194;111024;-65
2021/11/04 10:27:35;;;;;;;9.90;5.90;;;;;;;12.40;59.89;98773.52;114550;1195;137548;-65
2021/11/04 10:30:40;;;;;;;12.20;5.90;;;;;;;12.49;59.63;98772.05;114669;1193;108585;-64
2021/11/04 10:33:29;;;;;;;11.20;5.60;;;;;;;12.62;59.57;98776.61;114315;1194;138078;-65
2021/11/04 10:36:24;;;;;;;7.70;5.20;;;;;;;12.82;59.20;98780.10;113554;1193;96178;-64
2021/11/04 10:39:12;;;;;;;10.80;5.50;;;;;;;12.94;58.51;98775.27;114575;1194;137500;-65
2021/11/04 10:41:59;;;;;;;12.70;5.50;;;;;;;12.99;58.44;98778.28;113890;1194;109024;-64
2021/11/04 10:44:45;;;;;;;9.20;5.20;;;;;;;13.00;58.40;98762.48;113168;1195;137547;-64
2021/11/04 10:47:33;;;;;;;10.80;5.40;;;;;;;13.03;58.52;98744.52;113326;1194;96161;-64
2021/11/04 10:50:46;;;;;;;9.30;5.90;;;;;;;13.07;58.61;98743.65;113419;1195;96269;-64
2021/11/04 10:53:33;;;;;;;11.70;5.40;;;;;;;13.07;58.55;98752.41;114744;1195;110828;-65
2021/11/04 10:56:21;;;;;;;11.00;5.50;;;;;;;13.09;58.46;98743.40;114729;1194;108439;-65
2021/11/04 10:59:16;;;;;;;10.40;6.00;;;;;;;13.10;58.40;98731.84;114629;1194;137313;-64
2021/11/04 11:02:05;;;;;;;11.40;5.90;;;;;;;13.13;58.60;98730.73;113418;1195;96356;-65
2021/11/04 11:04:52;;;;;;;9.90;5.30;;;;;;;13.18;58.40;98731.31;114600;1194;137682;-64
2021/11/04 11:07:39;;;;;;;9.10;5.20;;;;;;;13.23;58.28;98714.55;114509;1194;111658;-65
2021/11/04 11:10:26;;;;;;;9.60;5.70;;;;;;;13.29;58.38;98710.65;113781;1194;137300;-64
2021/11/04 11:13:13;;;;;;;11.00;5.70;;;;;;;13.35;58.46;98708.52;114610;1194;108617;-64
2021/11/04 11:16:04;;;;;;;8.60;5.10;;;;;;;13.37;58.37;98711.35;114580;1193;138978;-64
2021/11/04 11:18:57;;;;;;;8.80;5.30;;;;;;;13.36;57.98;98716.33;114729;1194;94462;-64
2021/11/04 11:21:50;;;;;;;7.50;5.10;;;;;;;13.37;58.01;98703.55;114665;1194;137393;-64
2021/11/04 11:24:40;;;;;;;8.90;5.30;;;;;;;13.36;58.03;98690.45;114749;1194;109890;-64
2021/11/04 11:27:32;;;;;;;14.10;6.10;;;;;;;13.35;57.72;98699.09;114281;1194;137395;-64
2021/11/04 11:30:19;;;;;;;11.20;5.60;;;;;;;13.35;57.60;98704.55;113307;1193;96153;-63
2021/11/04 11:33:22;;;;;;;8.50;5.50;;;;;;;13.32;57.58;98693.36;114726;1194;94697;-64
2021/11/04 11:36:15;;;;;;;11.80;6.00;;;;;;;13.29;57.52;98686.92;114675;1194;110850;-64
2021/11/04 11:39:07;;;;;;;15.10;6.40;;;;;;;13.27;57.77;98688.27;114751;1194;109008;-65
2021/11/04 11:41:57;;;;;;;13.40;6.30;;;;;;;13.26;57.92;98673.87;114492;1193;138139;-64
2021/11/04 11:44:52;;;;;;;10.20;5.50;;;;;;;13.24;57.72;98667.86;114652;1194;94641;-64
2021/11/04 11:47:42;;;;;;;14.00;6.20;;;;;;;13.23;57.87;98668.30;114533;1194;137950;-64
2021/11/04 11:50:39;;;;;;;11.90;5.80;;;;;;;13.21;57.96;98653.75;113813;1195;110309;-64
2021/11/04 11:53:40;;;;;;;10.20;5.70;;;;;;;13.19;58.19;98653.54;113242;1194;137849;-64
2021/11/04 11:56:27;;;;;;;9.50;6.20;;;;;;;13.16;58.06;98669.42;114779;1194;108597;-62
2021/11/04 11:59:29;;;;;;;14.70;6.20;;;;;;;13.14;58.40;98661.94;114584;1194;137358;-64
2021/11/04 12:02:35;;;;;;;11.40;6.00;;;;;;;13.12;58.43;98669.02;114678;1194;94139;-64
2021/11/04 12:05:22;;;;;;;9.50;6.00;;;;;;;13.12;58.49;98677.24;114244;1194;137271;-65
2021/11/04 12:08:09;;;;;;;11.70;6.90;;;;;;;13.13;58.69;98672.83;113344;1195;108978;-64
2021/11/04 12:10:57;;;;;;;10.90;5.80;;;;;;;13.12;58.66;98670.05;113182;1195;137553;-65
2021/11/04 12:13:47;;;;;;;12.10;7.10;;;;;;;13.12;58.75;98669.05;114657;1194;94869;-63
2021/11/04 12:16:36;;;;;;;12.50;7.30;;;;;;;13.11;58.83;98668.73;113567;1194;137381;-64
2021/11/04 12:19:34;;;;;;;13.00;7.00;;;;;;;13.12;59.00;98647.42;113356;1195;110941;-65
2021/11/04 12:22:30;;;;;;;14.00;7.00;;;;;;;13.12;59.15;98666.59;113114;1195;138290;-63
2021/11/04 12:25:21;;;;;;;13.00;7.00;;;;;;;13.13;59.18;98660.45;113139;1195;109244;-64
2021/11/04 12:28:07;;;;;;;15.00;7.10;;;;;;;13.13;59.39;98657.13;113095;1195;138177;-64
2021/11/04 12:30:54;;;;;;;11.90;7.10;;;;;;;13.12;59.47;98655.92;114696;1186;94445;-64
2021/11/04 12:33:40;;;;;;;12.90;6.50;;;;;;;13.13;59.54;98665.34;114386;1194;138336;-65
2021/11/04 12:36:36;;;;;;;11.00;6.80;;;;;;;13.14;59.76;98654.39;114610;1195;108090;-64
2021/11/04 12:39:30;;;;;;;14.60;7.40;;;;;;;13.15;59.85;98673.35;114646;1194;108555;-65
2021/11/04 12:42:18;;;;;;;13.90;6.70;;;;;;;13.17;59.94;98649.48;114518;1193;137253;-64
2021/11/04 12:45:05;;;;;;;12.90;7.10;;;;;;;13.17;59.99;98643.70;114561;1194;95137;-64
2021/11/04 12:48:00;;;;;;;10.70;6.80;;;;;;;13.18;59.97;98629.02;113272;1195;149784;-64
2021/11/04 12:50:57;;;;;;;11.90;6.50;;;;;;;13.18;59.97;98617.69;114673;1194;108837;-64
2021/11/04 12:53:58;;;;;;;13.50;7.90;;;;;;;13.17;60.05;98614.58;114556;1194;138381;-64
2021/11/04 12:56:54;;;;;;;12.40;7.20;;;;;;;13.16;60.06;98601.55;113418;1194;96675;-62